Aviation Digital Data Service (ADDS)

Output produced by METARs form (1815 UTC 25 July 2014)
found at http://www.aviationweather.gov/adds/metars/
 
KCXY 251756Z 32007KT 10SM CLR 25/08 A3003 RMK AO2 SLP168 T02500083 10250 20172 58016
KCXY 251656Z 03003KT 10SM CLR 24/08 A3005 RMK AO2 SLP176 T02390078
KCXY 251556Z 14003KT 10SM CLR 22/10 A3006 RMK AO2 SLP180 T02220100
KCXY 251456Z 29005KT 10SM CLR 22/11 A3008 RMK AO2 SLP184 T02170111 58001
KCXY 251356Z 32006KT 10SM CLR 20/10 A3009 RMK AO2 SLP187 T02000100
KCXY 251256Z 32007KT 10SM CLR 19/10 A3009 RMK AO2 SLP190 T01890100
KCXY 251156Z VRB04KT 10SM CLR 17/10 A3008 RMK AO2 SLP185 T01720100 10194 20122 51021
KCXY 251056Z 24004KT 10SM CLR 14/11 A3006 RMK AO2 SLP180 T01390106
KCXY 250956Z AUTO 25005KT 10SM CLR 13/10 A3005 RMK AO2 SLP176 T01280100
KCXY 250856Z AUTO 26005KT 10SM CLR 13/10 A3002 RMK AO2 SLP164 T01280100 55001
KCXY 250756Z AUTO 00000KT 10SM CLR 14/10 A3001 RMK AO2 SLP162 T01440100
KCXY 250656Z AUTO 34004KT 10SM CLR 18/09 A3001 RMK AO2 SLP163 T01780089
KCXY 250556Z AUTO 34006KT 10SM CLR 19/09 A3002 RMK AO2 SLP164 T01940094 10239 20156 53018
KCXY 250456Z AUTO 35003KT 10SM CLR 19/11 A3000 RMK AO2 SLP158 T01940111 402610156
KCXY 250356Z AUTO 00000KT 10SM CLR 16/13 A2998 RMK AO2 SLP152 T01610128
KCXY 250256Z AUTO 00000KT 10SM CLR 17/12 A2996 RMK AO2 SLP146 T01720122 53011
KCXY 250156Z AUTO 03004KT 10SM CLR 22/11 A2995 RMK AO2 SLP140 T02220111
KCXY 250056Z AUTO 34005KT 10SM CLR 23/11 A2994 RMK AO2 SLP136 T02280111
KCXY 242356Z 36007KT 330V030 10SM CLR 24/11 A2993 RMK AO2 SLP135 T02390106 10261 20239 53007
KCXY 242256Z 36007KT 10SM CLR 24/10 A2992 RMK AO2 SLP132 T02390100
KCXY 242156Z 35008G15KT 10SM CLR 25/11 A2991 RMK AO2 SLP127 T02500106
KCXY 242056Z 35007KT 10SM SCT055 BKN120 26/11 A2991 RMK AO2 SLP126 T02560111 58004
KCXY 241956Z 34009KT 10SM FEW055 26/11 A2992 RMK AO2 SLP130 T02560106
KCXY 241856Z 34007KT 10SM SCT055 BKN110 26/11 A2991 RMK AO2 SLP127 T02560111
KCXY 241756Z 33009KT 10SM SCT050 25/12 A2992 RMK AO2 SLP130 T02500117 10256 20206 58009
KCXY 241656Z 34010KT 10SM BKN050 24/12 A2993 RMK AO2 SLP134 T02440122
KCXY 241556Z 33009KT 10SM BKN041 BKN049 23/14 A2995 RMK AO2 SLP139 T02280139
KCXY 241456Z 33006KT 10SM SCT034 22/14 A2995 RMK AO2 SLP140 T02220144 53007
KCXY 241356Z VRB06KT 10SM SCT029 22/14 A2994 RMK AO2 SLP137 T02170144
KCXY 241256Z 34007KT 10SM BKN050 21/14 A2993 RMK AO2 SLP134 T02060144
KCXY 241156Z 36010G14KT 10SM BKN049 21/14 A2993 RMK AO2 SLP133 70022 T02060144 10239 20206 51010
KCXY 241056Z 34008KT 10SM SCT050 21/14 A2991 RMK AO2 SLP129 T02060144
KCXY 240956Z AUTO 34008KT 10SM OVC044 21/15 A2991 RMK AO2 SLP128 T02110150
KCXY 240856Z AUTO 36005KT 10SM OVC042 22/14 A2990 RMK AO2 SLP122 T02170144 53006
KCXY 240756Z AUTO 01006KT 10SM OVC040 23/14 A2988 RMK AO2 SLP118 T02280139
KCXY 240656Z AUTO 36008KT 10SM OVC040 23/16 A2988 RMK AO2 SLP115 T02330156